sensor_id;sensor_type;location;lat;lon;timestamp;temperature;humidity
11426;DHT22;5769;47.998;7.788;2023-02-26T00:02:02;19.30;62.10
11426;DHT22;5769;47.998;7.788;2023-02-26T00:04:31;19.30;62.10
11426;DHT22;5769;47.998;7.788;2023-02-26T00:07:00;19.30;62.20
11426;DHT22;5769;47.998;7.788;2023-02-26T00:09:29;19.30;62.20
11426;DHT22;5769;47.998;7.788;2023-02-26T00:12:00;19.30;62.10
11426;DHT22;5769;47.998;7.788;2023-02-26T00:14:30;19.30;62.10
11426;DHT22;5769;47.998;7.788;2023-02-26T00:17:28;19.20;62.00
11426;DHT22;5769;47.998;7.788;2023-02-26T00:19:58;19.30;62.00
11426;DHT22;5769;47.998;7.788;2023-02-26T00:22:26;19.30;62.00
11426;DHT22;5769;47.998;7.788;2023-02-26T00:24:56;19.30;62.10
11426;DHT22;5769;47.998;7.788;2023-02-26T00:27:23;19.30;62.10
11426;DHT22;5769;47.998;7.788;2023-02-26T00:29:50;19.30;62.10
11426;DHT22;5769;47.998;7.788;2023-02-26T00:32:17;19.30;62.10
11426;DHT22;5769;47.998;7.788;2023-02-26T00:34:47;19.30;62.10
11426;DHT22;5769;47.998;7.788;2023-02-26T00:37:24;19.30;61.90
11426;DHT22;5769;47.998;7.788;2023-02-26T00:40:02;19.30;61.90
11426;DHT22;5769;47.998;7.788;2023-02-26T00:42:35;19.30;62.00
11426;DHT22;5769;47.998;7.788;2023-02-26T00:45:05;19.30;62.10
11426;DHT22;5769;47.998;7.788;2023-02-26T00:47:39;19.30;62.90
11426;DHT22;5769;47.998;7.788;2023-02-26T00:50:16;19.30;62.10
11426;DHT22;5769;47.998;7.788;2023-02-26T00:52:52;19.20;62.00
11426;DHT22;5769;47.998;7.788;2023-02-26T00:55:20;19.20;62.10
11426;DHT22;5769;47.998;7.788;2023-02-26T00:57:56;19.20;62.10
11426;DHT22;5769;47.998;7.788;2023-02-26T01:00:27;19.30;62.10
11426;DHT22;5769;47.998;7.788;2023-02-26T01:02:55;19.20;62.00
11426;DHT22;5769;47.998;7.788;2023-02-26T01:05:26;19.20;62.00
11426;DHT22;5769;47.998;7.788;2023-02-26T01:08:02;19.20;62.00
11426;DHT22;5769;47.998;7.788;2023-02-26T01:10:36;19.30;62.00
11426;DHT22;5769;47.998;7.788;2023-02-26T01:13:04;19.30;61.90
11426;DHT22;5769;47.998;7.788;2023-02-26T01:15:32;19.20;61.70
11426;DHT22;5769;47.998;7.788;2023-02-26T01:18:07;19.30;61.90
11426;DHT22;5769;47.998;7.788;2023-02-26T01:20:41;19.20;61.90
11426;DHT22;5769;47.998;7.788;2023-02-26T01:23:23;19.30;61.90
11426;DHT22;5769;47.998;7.788;2023-02-26T01:25:53;19.20;61.80
11426;DHT22;5769;47.998;7.788;2023-02-26T01:28:26;19.30;61.90
11426;DHT22;5769;47.998;7.788;2023-02-26T01:30:58;19.20;62.00
11426;DHT22;5769;47.998;7.788;2023-02-26T01:33:29;19.20;61.90
11426;DHT22;5769;47.998;7.788;2023-02-26T01:36:07;19.20;61.90
11426;DHT22;5769;47.998;7.788;2023-02-26T01:38:38;19.20;61.90
11426;DHT22;5769;47.998;7.788;2023-02-26T01:41:35;19.20;62.00
11426;DHT22;5769;47.998;7.788;2023-02-26T01:44:20;19.20;62.10
11426;DHT22;5769;47.998;7.788;2023-02-26T01:47:16;19.20;62.10
11426;DHT22;5769;47.998;7.788;2023-02-26T01:49:47;19.20;61.90
11426;DHT22;5769;47.998;7.788;2023-02-26T01:55:31;19.20;62.10
11426;DHT22;5769;47.998;7.788;2023-02-26T01:57:59;19.20;62.10
11426;DHT22;5769;47.998;7.788;2023-02-26T02:00:29;19.20;62.00
11426;DHT22;5769;47.998;7.788;2023-02-26T02:02:57;19.20;61.80
11426;DHT22;5769;47.998;7.788;2023-02-26T02:05:28;19.20;61.90
11426;DHT22;5769;47.998;7.788;2023-02-26T02:07:58;19.20;62.00
11426;DHT22;5769;47.998;7.788;2023-02-26T02:10:28;19.20;62.00
11426;DHT22;5769;47.998;7.788;2023-02-26T02:13:07;19.20;62.00
11426;DHT22;5769;47.998;7.788;2023-02-26T02:15:41;19.20;62.00
11426;DHT22;5769;47.998;7.788;2023-02-26T02:18:17;19.20;62.10
11426;DHT22;5769;47.998;7.788;2023-02-26T02:21:20;19.20;62.10
11426;DHT22;5769;47.998;7.788;2023-02-26T02:23:57;19.20;62.00
11426;DHT22;5769;47.998;7.788;2023-02-26T02:26:55;19.20;62.10
11426;DHT22;5769;47.998;7.788;2023-02-26T02:29:46;19.10;62.00
11426;DHT22;5769;47.998;7.788;2023-02-26T02:32:21;19.10;62.10
11426;DHT22;5769;47.998;7.788;2023-02-26T02:34:57;19.20;62.10
11426;DHT22;5769;47.998;7.788;2023-02-26T02:37:31;19.20;62.10
11426;DHT22;5769;47.998;7.788;2023-02-26T02:40:05;19.20;62.10
11426;DHT22;5769;47.998;7.788;2023-02-26T02:42:43;19.20;62.20
11426;DHT22;5769;47.998;7.788;2023-02-26T02:45:18;19.10;62.20
11426;DHT22;5769;47.998;7.788;2023-02-26T02:47:54;19.20;62.30
11426;DHT22;5769;47.998;7.788;2023-02-26T02:50:27;19.20;62.40
11426;DHT22;5769;47.998;7.788;2023-02-26T02:52:59;19.20;62.40
11426;DHT22;5769;47.998;7.788;2023-02-26T02:55:34;19.10;62.40
11426;DHT22;5769;47.998;7.788;2023-02-26T02:58:08;19.20;62.40
11426;DHT22;5769;47.998;7.788;2023-02-26T03:00:40;19.10;62.40
11426;DHT22;5769;47.998;7.788;2023-02-26T03:03:14;19.20;62.40
11426;DHT22;5769;47.998;7.788;2023-02-26T03:05:45;19.20;62.40
11426;DHT22;5769;47.998;7.788;2023-02-26T03:08:15;19.20;62.40
11426;DHT22;5769;47.998;7.788;2023-02-26T03:10:43;19.10;62.40
11426;DHT22;5769;47.998;7.788;2023-02-26T03:13:15;19.20;62.40
11426;DHT22;5769;47.998;7.788;2023-02-26T03:15:51;19.20;62.30
11426;DHT22;5769;47.998;7.788;2023-02-26T03:18:33;19.20;62.40
11426;DHT22;5769;47.998;7.788;2023-02-26T03:21:11;19.10;62.40
11426;DHT22;5769;47.998;7.788;2023-02-26T03:23:44;19.10;62.40
11426;DHT22;5769;47.998;7.788;2023-02-26T03:26:17;19.10;62.50
11426;DHT22;5769;47.998;7.788;2023-02-26T03:28:51;19.10;62.50
11426;DHT22;5769;47.998;7.788;2023-02-26T03:31:24;19.20;62.60
11426;DHT22;5769;47.998;7.788;2023-02-26T03:33:59;19.10;62.50
11426;DHT22;5769;47.998;7.788;2023-02-26T03:36:30;19.20;62.50
11426;DHT22;5769;47.998;7.788;2023-02-26T03:39:19;19.10;62.50
11426;DHT22;5769;47.998;7.788;2023-02-26T03:41:56;19.10;62.50
11426;DHT22;5769;47.998;7.788;2023-02-26T03:44:28;19.20;62.50
11426;DHT22;5769;47.998;7.788;2023-02-26T03:46:59;19.10;63.20
11426;DHT22;5769;47.998;7.788;2023-02-26T03:49:39;19.20;62.40
11426;DHT22;5769;47.998;7.788;2023-02-26T03:52:20;19.10;62.20
11426;DHT22;5769;47.998;7.788;2023-02-26T03:54:57;19.20;62.30
11426;DHT22;5769;47.998;7.788;2023-02-26T03:57:30;19.10;62.20
11426;DHT22;5769;47.998;7.788;2023-02-26T03:59:59;19.20;62.30
11426;DHT22;5769;47.998;7.788;2023-02-26T04:02:31;19.10;62.20
11426;DHT22;5769;47.998;7.788;2023-02-26T04:05:10;19.10;62.20
11426;DHT22;5769;47.998;7.788;2023-02-26T04:07:39;19.20;62.30
11426;DHT22;5769;47.998;7.788;2023-02-26T04:10:10;19.10;62.40
11426;DHT22;5769;47.998;7.788;2023-02-26T04:12:40;19.10;62.20
11426;DHT22;5769;47.998;7.788;2023-02-26T04:15:14;19.20;62.20
11426;DHT22;5769;47.998;7.788;2023-02-26T04:17:41;19.10;62.10
11426;DHT22;5769;47.998;7.788;2023-02-26T04:20:23;19.10;62.10
11426;DHT22;5769;47.998;7.788;2023-02-26T04:23:00;19.10;62.10
11426;DHT22;5769;47.998;7.788;2023-02-26T04:25:30;19.10;62.10
11426;DHT22;5769;47.998;7.788;2023-02-26T04:28:15;19.10;62.20
11426;DHT22;5769;47.998;7.788;2023-02-26T04:30:43;19.10;62.10
11426;DHT22;5769;47.998;7.788;2023-02-26T04:33:13;19.10;62.10
11426;DHT22;5769;47.998;7.788;2023-02-26T04:35:51;19.10;62.10
11426;DHT22;5769;47.998;7.788;2023-02-26T04:38:18;19.10;62.10
11426;DHT22;5769;47.998;7.788;2023-02-26T04:40:50;19.10;62.10
11426;DHT22;5769;47.998;7.788;2023-02-26T04:43:20;19.10;62.10
11426;DHT22;5769;47.998;7.788;2023-02-26T04:45:54;19.10;62.10
11426;DHT22;5769;47.998;7.788;2023-02-26T04:48:24;19.10;62.10
11426;DHT22;5769;47.998;7.788;2023-02-26T04:50:55;19.10;62.10
11426;DHT22;5769;47.998;7.788;2023-02-26T04:53:23;19.10;62.10
11426;DHT22;5769;47.998;7.788;2023-02-26T04:55:53;19.10;62.10
11426;DHT22;5769;47.998;7.788;2023-02-26T04:58:23;19.10;62.10
11426;DHT22;5769;47.998;7.788;2023-02-26T05:00:53;19.10;62.20
11426;DHT22;5769;47.998;7.788;2023-02-26T05:03:28;19.10;62.00
11426;DHT22;5769;47.998;7.788;2023-02-26T05:06:02;19.00;62.10
11426;DHT22;5769;47.998;7.788;2023-02-26T05:08:35;19.10;62.10
11426;DHT22;5769;47.998;7.788;2023-02-26T05:11:08;19.10;62.20
11426;DHT22;5769;47.998;7.788;2023-02-26T05:13:49;19.10;62.20
11426;DHT22;5769;47.998;7.788;2023-02-26T05:16:19;19.10;62.10
11426;DHT22;5769;47.998;7.788;2023-02-26T05:18:48;19.10;62.10
11426;DHT22;5769;47.998;7.788;2023-02-26T05:21:19;19.00;62.20
11426;DHT22;5769;47.998;7.788;2023-02-26T05:23:47;19.10;62.30
11426;DHT22;5769;47.998;7.788;2023-02-26T05:26:18;19.10;62.30
11426;DHT22;5769;47.998;7.788;2023-02-26T05:28:45;19.10;62.30
11426;DHT22;5769;47.998;7.788;2023-02-26T05:31:14;19.10;62.40
11426;DHT22;5769;47.998;7.788;2023-02-26T05:33:47;19.10;62.30
11426;DHT22;5769;47.998;7.788;2023-02-26T05:36:17;19.10;62.30
11426;DHT22;5769;47.998;7.788;2023-02-26T05:38:46;19.10;62.40
11426;DHT22;5769;47.998;7.788;2023-02-26T05:41:18;19.10;62.30
11426;DHT22;5769;47.998;7.788;2023-02-26T05:43:47;19.00;62.20
11426;DHT22;5769;47.998;7.788;2023-02-26T05:46:16;19.10;62.30
11426;DHT22;5769;47.998;7.788;2023-02-26T05:48:43;19.00;62.10
11426;DHT22;5769;47.998;7.788;2023-02-26T05:51:11;19.10;63.00
11426;DHT22;5769;47.998;7.788;2023-02-26T05:53:40;19.10;62.20
11426;DHT22;5769;47.998;7.788;2023-02-26T05:56:20;19.10;62.50
11426;DHT22;5769;47.998;7.788;2023-02-26T05:58:59;19.00;62.30
11426;DHT22;5769;47.998;7.788;2023-02-26T06:01:30;19.00;62.20
11426;DHT22;5769;47.998;7.788;2023-02-26T06:03:57;19.10;62.20
11426;DHT22;5769;47.998;7.788;2023-02-26T06:06:24;19.00;62.30
11426;DHT22;5769;47.998;7.788;2023-02-26T06:08:54;19.10;62.30
11426;DHT22;5769;47.998;7.788;2023-02-26T06:11:25;19.10;62.50
11426;DHT22;5769;47.998;7.788;2023-02-26T06:13:58;19.10;62.40
11426;DHT22;5769;47.998;7.788;2023-02-26T06:16:27;19.10;62.60
11426;DHT22;5769;47.998;7.788;2023-02-26T06:19:00;19.00;62.40
11426;DHT22;5769;47.998;7.788;2023-02-26T06:21:40;19.10;62.50
11426;DHT22;5769;47.998;7.788;2023-02-26T06:24:11;19.10;62.40
11426;DHT22;5769;47.998;7.788;2023-02-26T06:26:50;19.00;62.40
11426;DHT22;5769;47.998;7.788;2023-02-26T06:29:25;19.10;62.50
11426;DHT22;5769;47.998;7.788;2023-02-26T06:32:05;19.10;62.50
11426;DHT22;5769;47.998;7.788;2023-02-26T06:34:33;19.00;62.40
11426;DHT22;5769;47.998;7.788;2023-02-26T06:37:06;19.00;62.40
11426;DHT22;5769;47.998;7.788;2023-02-26T06:39:38;19.00;62.40
11426;DHT22;5769;47.998;7.788;2023-02-26T06:42:08;19.10;62.40
11426;DHT22;5769;47.998;7.788;2023-02-26T06:44:43;19.10;62.50
11426;DHT22;5769;47.998;7.788;2023-02-26T06:47:15;19.00;62.40
11426;DHT22;5769;47.998;7.788;2023-02-26T06:49:48;19.00;62.30
11426;DHT22;5769;47.998;7.788;2023-02-26T06:52:18;19.00;62.40
11426;DHT22;5769;47.998;7.788;2023-02-26T06:54:52;19.00;62.30
11426;DHT22;5769;47.998;7.788;2023-02-26T06:57:25;19.00;62.30
11426;DHT22;5769;47.998;7.788;2023-02-26T06:59:56;19.10;62.30
11426;DHT22;5769;47.998;7.788;2023-02-26T07:02:24;19.00;62.20
11426;DHT22;5769;47.998;7.788;2023-02-26T07:05:10;19.00;62.20
11426;DHT22;5769;47.998;7.788;2023-02-26T07:07:42;19.00;62.10
11426;DHT22;5769;47.998;7.788;2023-02-26T07:10:14;19.00;62.30
11426;DHT22;5769;47.998;7.788;2023-02-26T07:12:48;19.00;62.20
11426;DHT22;5769;47.998;7.788;2023-02-26T07:15:35;19.00;63.10
11426;DHT22;5769;47.998;7.788;2023-02-26T07:18:19;19.00;62.20
11426;DHT22;5769;47.998;7.788;2023-02-26T07:20:48;19.10;62.30
11426;DHT22;5769;47.998;7.788;2023-02-26T07:23:18;19.10;62.40
11426;DHT22;5769;47.998;7.788;2023-02-26T07:25:51;19.10;62.30
11426;DHT22;5769;47.998;7.788;2023-02-26T07:28:27;19.00;62.50
11426;DHT22;5769;47.998;7.788;2023-02-26T07:31:04;19.00;62.40
11426;DHT22;5769;47.998;7.788;2023-02-26T07:33:36;19.10;62.50
11426;DHT22;5769;47.998;7.788;2023-02-26T07:36:08;19.10;62.50
11426;DHT22;5769;47.998;7.788;2023-02-26T07:38:37;19.00;62.50
11426;DHT22;5769;47.998;7.788;2023-02-26T07:41:07;19.10;62.50
11426;DHT22;5769;47.998;7.788;2023-02-26T07:43:34;19.00;62.40
11426;DHT22;5769;47.998;7.788;2023-02-26T07:46:01;19.10;62.60
11426;DHT22;5769;47.998;7.788;2023-02-26T07:48:28;19.00;62.40
11426;DHT22;5769;47.998;7.788;2023-02-26T07:50:55;19.10;62.50
11426;DHT22;5769;47.998;7.788;2023-02-26T07:53:24;19.00;62.40
11426;DHT22;5769;47.998;7.788;2023-02-26T07:55:51;19.00;62.40
11426;DHT22;5769;47.998;7.788;2023-02-26T07:58:19;19.00;62.40
11426;DHT22;5769;47.998;7.788;2023-02-26T08:00:46;19.10;62.30
11426;DHT22;5769;47.998;7.788;2023-02-26T08:03:13;19.00;62.20
11426;DHT22;5769;47.998;7.788;2023-02-26T08:05:40;19.10;62.10
11426;DHT22;5769;47.998;7.788;2023-02-26T08:08:09;19.00;62.30
11426;DHT22;5769;47.998;7.788;2023-02-26T08:10:36;19.10;62.40
11426;DHT22;5769;47.998;7.788;2023-02-26T08:13:06;19.00;62.40
11426;DHT22;5769;47.998;7.788;2023-02-26T08:15:34;19.00;62.40
11426;DHT22;5769;47.998;7.788;2023-02-26T08:18:01;19.10;62.40
11426;DHT22;5769;47.998;7.788;2023-02-26T08:20:28;19.00;62.40
11426;DHT22;5769;47.998;7.788;2023-02-26T08:22:55;19.10;62.30
11426;DHT22;5769;47.998;7.788;2023-02-26T08:25:23;19.00;62.10
11426;DHT22;5769;47.998;7.788;2023-02-26T08:27:50;19.00;62.20
11426;DHT22;5769;47.998;7.788;2023-02-26T08:30:17;19.00;62.20
11426;DHT22;5769;47.998;7.788;2023-02-26T08:32:45;19.00;62.10
11426;DHT22;5769;47.998;7.788;2023-02-26T08:35:14;19.00;62.10
11426;DHT22;5769;47.998;7.788;2023-02-26T08:37:41;19.00;62.20
11426;DHT22;5769;47.998;7.788;2023-02-26T08:40:09;19.00;62.10
11426;DHT22;5769;47.998;7.788;2023-02-26T08:42:37;19.00;62.20
11426;DHT22;5769;47.998;7.788;2023-02-26T08:45:05;19.00;62.10
11426;DHT22;5769;47.998;7.788;2023-02-26T08:47:32;19.00;62.20
11426;DHT22;5769;47.998;7.788;2023-02-26T08:50:03;19.00;62.30
11426;DHT22;5769;47.998;7.788;2023-02-26T08:52:31;19.10;62.40
11426;DHT22;5769;47.998;7.788;2023-02-26T08:55:02;19.00;62.40
11426;DHT22;5769;47.998;7.788;2023-02-26T08:57:29;19.00;62.40
11426;DHT22;5769;47.998;7.788;2023-02-26T08:59:55;19.00;62.40
11426;DHT22;5769;47.998;7.788;2023-02-26T09:02:22;19.00;62.40
11426;DHT22;5769;47.998;7.788;2023-02-26T09:04:49;19.00;62.40
11426;DHT22;5769;47.998;7.788;2023-02-26T09:07:17;19.00;62.40
11426;DHT22;5769;47.998;7.788;2023-02-26T09:09:47;19.00;62.50
11426;DHT22;5769;47.998;7.788;2023-02-26T09:12:14;18.90;62.50
11426;DHT22;5769;47.998;7.788;2023-02-26T09:14:43;19.00;62.50
11426;DHT22;5769;47.998;7.788;2023-02-26T09:17:10;19.00;62.50
11426;DHT22;5769;47.998;7.788;2023-02-26T09:19:37;19.00;62.50
11426;DHT22;5769;47.998;7.788;2023-02-26T09:22:04;18.90;62.30
11426;DHT22;5769;47.998;7.788;2023-02-26T09:24:33;18.90;62.20
11426;DHT22;5769;47.998;7.788;2023-02-26T09:27:00;19.00;62.40
11426;DHT22;5769;47.998;7.788;2023-02-26T09:29:28;19.00;62.40
11426;DHT22;5769;47.998;7.788;2023-02-26T09:31:55;19.00;62.40
11426;DHT22;5769;47.998;7.788;2023-02-26T09:34:23;19.00;62.40
11426;DHT22;5769;47.998;7.788;2023-02-26T09:36:50;19.00;62.40
11426;DHT22;5769;47.998;7.788;2023-02-26T09:39:17;19.00;62.40
11426;DHT22;5769;47.998;7.788;2023-02-26T09:41:49;19.00;62.40
11426;DHT22;5769;47.998;7.788;2023-02-26T09:44:19;19.00;62.40
11426;DHT22;5769;47.998;7.788;2023-02-26T09:46:53;18.90;62.30
11426;DHT22;5769;47.998;7.788;2023-02-26T09:49:30;19.00;62.40
11426;DHT22;5769;47.998;7.788;2023-02-26T09:52:02;19.00;62.40
11426;DHT22;5769;47.998;7.788;2023-02-26T09:54:35;19.00;62.40
11426;DHT22;5769;47.998;7.788;2023-02-26T09:57:06;19.00;62.40
11426;DHT22;5769;47.998;7.788;2023-02-26T09:59:36;19.00;62.50
11426;DHT22;5769;47.998;7.788;2023-02-26T10:02:06;19.00;62.50
11426;DHT22;5769;47.998;7.788;2023-02-26T10:04:51;19.00;62.40
11426;DHT22;5769;47.998;7.788;2023-02-26T10:07:27;19.00;62.50
11426;DHT22;5769;47.998;7.788;2023-02-26T10:10:08;19.00;62.50
11426;DHT22;5769;47.998;7.788;2023-02-26T10:12:42;19.00;62.40
11426;DHT22;5769;47.998;7.788;2023-02-26T10:15:12;18.90;62.30
11426;DHT22;5769;47.998;7.788;2023-02-26T10:17:48;19.00;62.40
11426;DHT22;5769;47.998;7.788;2023-02-26T10:20:19;18.90;62.20
11426;DHT22;5769;47.998;7.788;2023-02-26T10:22:54;19.00;62.10
11426;DHT22;5769;47.998;7.788;2023-02-26T10:25:28;18.90;62.00
11426;DHT22;5769;47.998;7.788;2023-02-26T10:28:00;18.90;61.90
11426;DHT22;5769;47.998;7.788;2023-02-26T10:30:35;19.00;62.10
11426;DHT22;5769;47.998;7.788;2023-02-26T10:33:13;19.00;62.00
11426;DHT22;5769;47.998;7.788;2023-02-26T10:35:49;19.00;62.00
11426;DHT22;5769;47.998;7.788;2023-02-26T10:38:21;18.90;62.00
11426;DHT22;5769;47.998;7.788;2023-02-26T10:40:50;19.00;62.10
11426;DHT22;5769;47.998;7.788;2023-02-26T10:43:26;18.90;62.00
11426;DHT22;5769;47.998;7.788;2023-02-26T10:46:08;19.00;62.00
11426;DHT22;5769;47.998;7.788;2023-02-26T10:48:54;18.90;61.90
11426;DHT22;5769;47.998;7.788;2023-02-26T10:51:31;18.90;61.90
11426;DHT22;5769;47.998;7.788;2023-02-26T10:54:10;19.00;61.90
11426;DHT22;5769;47.998;7.788;2023-02-26T10:56:38;18.90;61.80
11426;DHT22;5769;47.998;7.788;2023-02-26T10:59:06;18.90;61.80
11426;DHT22;5769;47.998;7.788;2023-02-26T11:01:33;19.00;61.80
11426;DHT22;5769;47.998;7.788;2023-02-26T11:04:06;19.00;61.70
11426;DHT22;5769;47.998;7.788;2023-02-26T11:06:37;18.90;61.80
11426;DHT22;5769;47.998;7.788;2023-02-26T11:09:06;18.90;61.70
11426;DHT22;5769;47.998;7.788;2023-02-26T11:11:41;18.90;61.50
11426;DHT22;5769;47.998;7.788;2023-02-26T11:14:10;19.00;61.70
11426;DHT22;5769;47.998;7.788;2023-02-26T11:16:42;18.90;61.50
11426;DHT22;5769;47.998;7.788;2023-02-26T11:19:13;19.00;61.70
11426;DHT22;5769;47.998;7.788;2023-02-26T11:21:43;18.90;61.70
11426;DHT22;5769;47.998;7.788;2023-02-26T11:24:17;18.90;61.60
11426;DHT22;5769;47.998;7.788;2023-02-26T11:26:50;19.00;61.70
11426;DHT22;5769;47.998;7.788;2023-02-26T11:29:24;19.00;61.80
11426;DHT22;5769;47.998;7.788;2023-02-26T11:31:52;19.00;61.70
11426;DHT22;5769;47.998;7.788;2023-02-26T11:34:21;18.90;61.70
11426;DHT22;5769;47.998;7.788;2023-02-26T11:36:49;19.00;61.70
11426;DHT22;5769;47.998;7.788;2023-02-26T11:39:24;19.00;61.70
11426;DHT22;5769;47.998;7.788;2023-02-26T11:41:54;19.00;61.70
11426;DHT22;5769;47.998;7.788;2023-02-26T11:44:32;18.90;61.60
11426;DHT22;5769;47.998;7.788;2023-02-26T11:47:03;19.00;61.70
11426;DHT22;5769;47.998;7.788;2023-02-26T11:49:31;19.00;61.70
11426;DHT22;5769;47.998;7.788;2023-02-26T11:52:15;18.90;61.60
11426;DHT22;5769;47.998;7.788;2023-02-26T11:54:44;19.00;61.60
11426;DHT22;5769;47.998;7.788;2023-02-26T11:57:16;18.90;61.50
11426;DHT22;5769;47.998;7.788;2023-02-26T11:59:47;18.90;61.60
11426;DHT22;5769;47.998;7.788;2023-02-26T12:02:19;18.90;61.60
11426;DHT22;5769;47.998;7.788;2023-02-26T12:04:48;19.00;61.70
11426;DHT22;5769;47.998;7.788;2023-02-26T12:07:17;19.00;61.60
11426;DHT22;5769;47.998;7.788;2023-02-26T12:09:44;19.00;61.60
11426;DHT22;5769;47.998;7.788;2023-02-26T12:12:33;18.90;61.50
11426;DHT22;5769;47.998;7.788;2023-02-26T12:18:05;18.90;61.40
11426;DHT22;5769;47.998;7.788;2023-02-26T12:20:41;18.90;61.40
11426;DHT22;5769;47.998;7.788;2023-02-26T12:23:28;19.00;61.50
11426;DHT22;5769;47.998;7.788;2023-02-26T12:26:19;18.90;61.30
11426;DHT22;5769;47.998;7.788;2023-02-26T12:32:35;18.90;61.30
11426;DHT22;5769;47.998;7.788;2023-02-26T12:38:06;18.90;61.20
11426;DHT22;5769;47.998;7.788;2023-02-26T12:40:49;19.00;61.30
11426;DHT22;5769;47.998;7.788;2023-02-26T12:43:30;18.80;61.20
11426;DHT22;5769;47.998;7.788;2023-02-26T12:46:07;18.90;61.20
11426;DHT22;5769;47.998;7.788;2023-02-26T12:51:42;19.00;61.30
11426;DHT22;5769;47.998;7.788;2023-02-26T12:54:36;18.90;61.20
11426;DHT22;5769;47.998;7.788;2023-02-26T13:00:26;18.90;61.30
11426;DHT22;5769;47.998;7.788;2023-02-26T13:03:25;18.80;61.20
11426;DHT22;5769;47.998;7.788;2023-02-26T13:08:59;18.90;61.30
11426;DHT22;5769;47.998;7.788;2023-02-26T13:11:44;18.90;61.40
11426;DHT22;5769;47.998;7.788;2023-02-26T13:14:29;18.90;61.70
11426;DHT22;5769;47.998;7.788;2023-02-26T13:17:03;18.90;61.90
11426;DHT22;5769;47.998;7.788;2023-02-26T13:19:37;18.90;61.90
11426;DHT22;5769;47.998;7.788;2023-02-26T13:22:29;19.00;62.80
11426;DHT22;5769;47.998;7.788;2023-02-26T13:25:18;19.10;62.40
11426;DHT22;5769;47.998;7.788;2023-02-26T13:28:03;19.00;62.60
11426;DHT22;5769;47.998;7.788;2023-02-26T13:30:40;19.10;63.50
11426;DHT22;5769;47.998;7.788;2023-02-26T13:33:15;19.10;63.00
11426;DHT22;5769;47.998;7.788;2023-02-26T13:35:44;19.10;63.10
11426;DHT22;5769;47.998;7.788;2023-02-26T13:38:20;19.10;63.20
11426;DHT22;5769;47.998;7.788;2023-02-26T13:41:03;19.10;63.30
11426;DHT22;5769;47.998;7.788;2023-02-26T13:43:45;19.20;63.60
11426;DHT22;5769;47.998;7.788;2023-02-26T13:46:30;19.10;63.50
11426;DHT22;5769;47.998;7.788;2023-02-26T13:49:22;19.10;63.50
11426;DHT22;5769;47.998;7.788;2023-02-26T13:51:52;19.20;63.80
11426;DHT22;5769;47.998;7.788;2023-02-26T13:54:33;19.20;63.60
11426;DHT22;5769;47.998;7.788;2023-02-26T13:57:14;19.10;63.70
11426;DHT22;5769;47.998;7.788;2023-02-26T13:59:47;19.30;63.70
11426;DHT22;5769;47.998;7.788;2023-02-26T14:02:34;19.20;63.90
11426;DHT22;5769;47.998;7.788;2023-02-26T14:05:09;19.20;63.50
11426;DHT22;5769;47.998;7.788;2023-02-26T14:07:47;19.30;64.10
11426;DHT22;5769;47.998;7.788;2023-02-26T14:10:23;19.30;64.30
11426;DHT22;5769;47.998;7.788;2023-02-26T14:13:15;19.20;64.30
11426;DHT22;5769;47.998;7.788;2023-02-26T14:15:49;19.20;64.00
11426;DHT22;5769;47.998;7.788;2023-02-26T14:18:24;19.20;64.00
11426;DHT22;5769;47.998;7.788;2023-02-26T14:20:51;19.20;63.90
11426;DHT22;5769;47.998;7.788;2023-02-26T14:23:34;19.30;64.00
11426;DHT22;5769;47.998;7.788;2023-02-26T14:26:10;19.30;63.90
11426;DHT22;5769;47.998;7.788;2023-02-26T14:28:58;19.30;63.70
11426;DHT22;5769;47.998;7.788;2023-02-26T14:31:51;19.40;63.60
11426;DHT22;5769;47.998;7.788;2023-02-26T14:34:21;19.30;63.80
11426;DHT22;5769;47.998;7.788;2023-02-26T14:36:53;19.30;63.80
11426;DHT22;5769;47.998;7.788;2023-02-26T14:39:28;19.30;63.90
11426;DHT22;5769;47.998;7.788;2023-02-26T14:42:02;19.30;63.90
11426;DHT22;5769;47.998;7.788;2023-02-26T14:44:35;19.30;63.90
11426;DHT22;5769;47.998;7.788;2023-02-26T14:47:03;19.40;63.80
11426;DHT22;5769;47.998;7.788;2023-02-26T14:49:32;19.30;63.70
11426;DHT22;5769;47.998;7.788;2023-02-26T14:52:31;19.30;63.70
11426;DHT22;5769;47.998;7.788;2023-02-26T14:55:21;19.30;63.80
11426;DHT22;5769;47.998;7.788;2023-02-26T14:57:59;19.40;63.80
11426;DHT22;5769;47.998;7.788;2023-02-26T15:00:35;19.40;63.70
11426;DHT22;5769;47.998;7.788;2023-02-26T15:03:34;19.30;63.10
11426;DHT22;5769;47.998;7.788;2023-02-26T15:06:20;19.30;63.30
11426;DHT22;5769;47.998;7.788;2023-02-26T15:09:01;19.40;63.40
11426;DHT22;5769;47.998;7.788;2023-02-26T15:11:45;19.30;63.50
11426;DHT22;5769;47.998;7.788;2023-02-26T15:14:43;19.30;63.20
11426;DHT22;5769;47.998;7.788;2023-02-26T15:17:23;19.40;63.20
11426;DHT22;5769;47.998;7.788;2023-02-26T15:20:09;19.40;63.40
11426;DHT22;5769;47.998;7.788;2023-02-26T15:22:59;19.30;63.50
11426;DHT22;5769;47.998;7.788;2023-02-26T15:25:30;19.30;63.60
11426;DHT22;5769;47.998;7.788;2023-02-26T15:27:59;19.40;63.20
11426;DHT22;5769;47.998;7.788;2023-02-26T15:30:29;19.40;63.50
11426;DHT22;5769;47.998;7.788;2023-02-26T15:32:57;19.40;63.50
11426;DHT22;5769;47.998;7.788;2023-02-26T15:35:27;19.40;63.50
11426;DHT22;5769;47.998;7.788;2023-02-26T15:37:57;19.50;63.40
11426;DHT22;5769;47.998;7.788;2023-02-26T15:40:28;19.40;63.10
11426;DHT22;5769;47.998;7.788;2023-02-26T15:42:57;19.40;63.30
11426;DHT22;5769;47.998;7.788;2023-02-26T15:45:30;19.50;63.20
11426;DHT22;5769;47.998;7.788;2023-02-26T15:48:01;19.40;63.50
11426;DHT22;5769;47.998;7.788;2023-02-26T15:50:33;19.50;63.40
11426;DHT22;5769;47.998;7.788;2023-02-26T15:53:02;19.40;63.30
11426;DHT22;5769;47.998;7.788;2023-02-26T15:55:32;19.50;63.50
11426;DHT22;5769;47.998;7.788;2023-02-26T15:58:01;19.40;63.20
11426;DHT22;5769;47.998;7.788;2023-02-26T16:00:31;19.40;63.20
11426;DHT22;5769;47.998;7.788;2023-02-26T16:02:58;19.50;62.90
11426;DHT22;5769;47.998;7.788;2023-02-26T16:05:25;19.50;62.80
11426;DHT22;5769;47.998;7.788;2023-02-26T16:07:54;19.40;62.90
11426;DHT22;5769;47.998;7.788;2023-02-26T16:10:27;19.50;62.90
11426;DHT22;5769;47.998;7.788;2023-02-26T16:12:55;19.50;63.00
11426;DHT22;5769;47.998;7.788;2023-02-26T16:15:27;19.50;62.80
11426;DHT22;5769;47.998;7.788;2023-02-26T16:17:56;19.50;63.10
11426;DHT22;5769;47.998;7.788;2023-02-26T16:20:26;19.50;63.10
11426;DHT22;5769;47.998;7.788;2023-02-26T16:22:55;19.50;62.60
11426;DHT22;5769;47.998;7.788;2023-02-26T16:25:27;19.50;62.90
11426;DHT22;5769;47.998;7.788;2023-02-26T16:27:59;19.50;62.70
11426;DHT22;5769;47.998;7.788;2023-02-26T16:30:30;19.60;62.80
11426;DHT22;5769;47.998;7.788;2023-02-26T16:33:09;19.50;62.60
11426;DHT22;5769;47.998;7.788;2023-02-26T16:35:45;19.50;62.80
11426;DHT22;5769;47.998;7.788;2023-02-26T16:38:17;19.50;62.70
11426;DHT22;5769;47.998;7.788;2023-02-26T16:40:58;19.60;62.80
11426;DHT22;5769;47.998;7.788;2023-02-26T16:43:49;19.60;62.90
11426;DHT22;5769;47.998;7.788;2023-02-26T16:46:19;19.60;62.80
11426;DHT22;5769;47.998;7.788;2023-02-26T16:48:55;19.50;62.60